LOWI/INN METAR and TAF weather

Enter ICAO airport designator
Station Type Date Time Source
LOWI METAR 2019/05/23 19:20 UTC NOAA

LOWI 231920Z 04003KT 360V100 9999 FEW060 SCT300 15/08 Q1017 NOSIG


Station Type Date Time Source
LOWI Decoded METAR 2019/05/23 19:20 UTC NOAA

Innsbruck-Flughafen, Austria (LOWI) 47-16N 011-21E 593M
May 23, 2019 - 03:20 PM EDT / 2019.05.23 1920 UTC
Wind: from the NE (040 degrees) at 3 MPH (3 KT) (direction variable):0
Visibility: greater than 7 mile(s):0
Sky conditions: partly cloudy
Temperature: 59 F (15 C)
Dew Point: 46 F (8 C)
Relative Humidity: 62%
Pressure (altimeter): 30.03 in. Hg (1017 hPa)
ob: LOWI 231920Z 04003KT 360V100 9999 FEW060 SCT300 15/08 Q1017 NOSIG
cycle: 19

Station Type Date Time Source
LOWI TAF 2019/05/23 18:21 UTC NOAA

TAF LOWI 231715Z 2318/2418 07010KT 9999 FEW070 SCT300 TX23/2414Z TN07/2403Z
BECMG 2318/2320 27004KT CAVOK
BECMG 2410/2412 09006KT 9999 FEW070
TEMPO 2413/2418 07012KT

Example: see airport list